Greenview, CA (96037)

11:47 AM PDT on September 30, 2014 (GMT -0700)
KCAETNA3 | Change Station
CLOSE
Current Station
Personal Weather Station
Location: Island Rd, Scott Valley, CA
Elevation: 2728 ft
Nearby Weather Stations

Elev 2728 ft 41.55 °N, 122.85 °W | Updated 40 seconds ago

Clear
Clear
61.3 °F
Feels Like 61.3 °F
N
1.0
Wind Variable Wind from SE
Gusts 2.0 mph

Today
High -- | Low -- °F
--% Chance of Precip.
Yesterday
High -- | Low -- °F
Precip. -- in
7:07 AM 6:54 PM
Waxing Crescent, 39% visible
Pressure 30.13 in
Visibility 10.0 miles
Clouds Clear
Dew Point 46 °F
Humidity 56%
Rainfall 0.00 in
Snow Depth 0 in , 0 in , 0 in
UV 5 out of 12
Pollen 3.40 out of 12
Air Quality Not available.
Flu Activity Not available.
METAR KSIY 301753Z AUTO 35012G17KT 10SM CLR 15/03 A3013 RMK AO2 SLP203 T01500033 10156 20106 50004

More Conditions Fewer Conditions

Pressure 30.13 in
Visibility 10.0 miles
Clouds Clear
Dew Point 46 °F
Humidity 56%
Rainfall 0.00 in
Snow Depth 0 in , 0 in , 0 in
UV 5 out of 12
Pollen 3.40 out of 12
Air Quality Not available.
Flu Activity Not available.
METAR KSIY 301753Z AUTO 35012G17KT 10SM CLR 15/03 A3013 RMK AO2 SLP203 T01500033 10156 20106 50004

More Conditions Fewer Conditions

10-Day Weather Forecast

Almanac

Astronomy

Sep. 30, 2014 Rise Set
Actual Time 7:07 AM PDT 6:54 PM PDT
Civil Twilight 6:39 AM PDT 7:22 PM PDT
Nautical Twilight 6:07 AM PDT 7:54 PM PDT
Astronomical Twilight 5:35 AM PDT 8:27 PM PDT
Moon 1:24 PM PDT 11:27 PM PDT
Length of Visible Light 12h 42m
Length of Day
11h 47m
Tomorrow will be 2m 45s shorter.
Waxing Crescent, 39% of the Moon is Illuminated
Today
Waxing Crescent
Oct 1
First Quarter
Oct 8
Full
Oct 15
Last Quarter
Oct 23
New

Today's Extremes

State Highs State Lows

Community

WunderPhotos

Upload Photos

1,757,712 photos uploaded!

Nearby

Snow Depth

Station Depth Elevation
Rubicon #2 0 in 7500 ft
Tahoe City Cross 0 in 6750 ft
Independence Camp 0 in 7000 ft
Summit Meadow 0 in 9122 ft
Spratt Creek 0 in 6200 ft

Earthquake Activity

City Distance Mag. Time & Date
No recent earthquake activity has been reported nearby.
Minimum magnitude displayed is 2.5.

Coastal Water Temperatures

Place Temperature
No Stations Reporting

Nearby Weather Stations